sensor_id;sensor_type;location;lat;lon;timestamp;P1;durP1;ratioP1;P2;durP2;ratioP2
35961;SDS011;22044;48.298;10.008;2023-07-24T00:02:39;9.83;;;6.93;;
35961;SDS011;22044;48.298;10.008;2023-07-24T00:05:24;11.03;;;6.93;;
35961;SDS011;22044;48.298;10.008;2023-07-24T00:08:10;8.48;;;6.70;;
35961;SDS011;22044;48.298;10.008;2023-07-24T00:10:57;9.35;;;7.07;;
35961;SDS011;22044;48.298;10.008;2023-07-24T00:13:42;10.13;;;6.93;;
35961;SDS011;22044;48.298;10.008;2023-07-24T00:16:29;11.00;;;7.50;;
35961;SDS011;22044;48.298;10.008;2023-07-24T00:19:15;10.07;;;7.40;;
35961;SDS011;22044;48.298;10.008;2023-07-24T00:22:01;12.07;;;7.73;;
35961;SDS011;22044;48.298;10.008;2023-07-24T00:24:46;10.67;;;7.27;;
35961;SDS011;22044;48.298;10.008;2023-07-24T00:27:33;8.10;;;6.43;;
35961;SDS011;22044;48.298;10.008;2023-07-24T00:30:19;11.07;;;7.53;;
35961;SDS011;22044;48.298;10.008;2023-07-24T00:33:05;9.77;;;7.43;;
35961;SDS011;22044;48.298;10.008;2023-07-24T00:35:50;10.07;;;7.05;;
35961;SDS011;22044;48.298;10.008;2023-07-24T00:38:40;9.57;;;7.57;;
35961;SDS011;22044;48.298;10.008;2023-07-24T00:41:26;8.53;;;6.97;;
35961;SDS011;22044;48.298;10.008;2023-07-24T00:44:13;12.93;;;7.90;;
35961;SDS011;22044;48.298;10.008;2023-07-24T00:46:59;9.47;;;7.33;;
35961;SDS011;22044;48.298;10.008;2023-07-24T00:49:44;11.07;;;8.00;;
35961;SDS011;22044;48.298;10.008;2023-07-24T00:52:32;12.50;;;7.47;;
35961;SDS011;22044;48.298;10.008;2023-07-24T00:55:17;9.07;;;7.03;;
35961;SDS011;22044;48.298;10.008;2023-07-24T00:58:03;11.97;;;7.60;;
35961;SDS011;22044;48.298;10.008;2023-07-24T01:00:51;9.53;;;7.10;;
35961;SDS011;22044;48.298;10.008;2023-07-24T01:03:37;9.80;;;7.60;;
35961;SDS011;22044;48.298;10.008;2023-07-24T01:06:23;14.57;;;7.60;;
35961;SDS011;22044;48.298;10.008;2023-07-24T01:09:09;13.23;;;8.00;;
35961;SDS011;22044;48.298;10.008;2023-07-24T01:11:56;9.90;;;7.20;;
35961;SDS011;22044;48.298;10.008;2023-07-24T01:14:46;19.53;;;8.83;;
35961;SDS011;22044;48.298;10.008;2023-07-24T01:17:39;15.00;;;8.77;;
35961;SDS011;22044;48.298;10.008;2023-07-24T01:20:30;15.97;;;8.87;;
35961;SDS011;22044;48.298;10.008;2023-07-24T01:23:29;16.03;;;9.23;;
35961;SDS011;22044;48.298;10.008;2023-07-24T01:26:37;12.97;;;7.77;;
35961;SDS011;22044;48.298;10.008;2023-07-24T01:29:23;10.87;;;7.93;;
35961;SDS011;22044;48.298;10.008;2023-07-24T01:32:09;16.07;;;8.80;;
35961;SDS011;22044;48.298;10.008;2023-07-24T01:34:54;14.60;;;8.40;;
35961;SDS011;22044;48.298;10.008;2023-07-24T01:37:40;10.77;;;8.67;;
35961;SDS011;22044;48.298;10.008;2023-07-24T01:40:27;13.90;;;9.38;;
35961;SDS011;22044;48.298;10.008;2023-07-24T01:43:14;11.10;;;8.30;;
35961;SDS011;22044;48.298;10.008;2023-07-24T01:46:00;10.80;;;8.10;;
35961;SDS011;22044;48.298;10.008;2023-07-24T01:48:46;11.63;;;9.13;;
35961;SDS011;22044;48.298;10.008;2023-07-24T01:51:32;12.30;;;8.77;;
35961;SDS011;22044;48.298;10.008;2023-07-24T01:54:17;10.50;;;7.97;;
35961;SDS011;22044;48.298;10.008;2023-07-24T01:57:03;11.97;;;8.50;;
35961;SDS011;22044;48.298;10.008;2023-07-24T01:59:51;16.03;;;8.73;;
35961;SDS011;22044;48.298;10.008;2023-07-24T02:02:36;14.17;;;9.07;;
35961;SDS011;22044;48.298;10.008;2023-07-24T02:05:22;12.53;;;7.10;;
35961;SDS011;22044;48.298;10.008;2023-07-24T02:08:08;11.77;;;7.30;;
35961;SDS011;22044;48.298;10.008;2023-07-24T02:10:54;11.83;;;7.23;;
35961;SDS011;22044;48.298;10.008;2023-07-24T02:13:39;12.20;;;8.23;;
35961;SDS011;22044;48.298;10.008;2023-07-24T02:16:26;12.00;;;8.70;;
35961;SDS011;22044;48.298;10.008;2023-07-24T02:19:12;12.43;;;7.97;;
35961;SDS011;22044;48.298;10.008;2023-07-24T02:21:58;14.37;;;8.57;;
35961;SDS011;22044;48.298;10.008;2023-07-24T02:24:43;13.20;;;8.67;;
35961;SDS011;22044;48.298;10.008;2023-07-24T02:27:30;10.97;;;8.27;;
35961;SDS011;22044;48.298;10.008;2023-07-24T02:30:17;13.80;;;9.43;;
35961;SDS011;22044;48.298;10.008;2023-07-24T02:33:04;12.30;;;9.37;;
35961;SDS011;22044;48.298;10.008;2023-07-24T02:35:51;15.03;;;10.13;;
35961;SDS011;22044;48.298;10.008;2023-07-24T02:38:37;12.77;;;8.40;;
35961;SDS011;22044;48.298;10.008;2023-07-24T02:41:24;13.93;;;9.40;;
35961;SDS011;22044;48.298;10.008;2023-07-24T02:44:10;14.10;;;9.67;;
35961;SDS011;22044;48.298;10.008;2023-07-24T02:46:58;14.97;;;9.73;;
35961;SDS011;22044;48.298;10.008;2023-07-24T02:49:45;15.17;;;10.27;;
35961;SDS011;22044;48.298;10.008;2023-07-24T02:52:31;14.27;;;9.50;;
35961;SDS011;22044;48.298;10.008;2023-07-24T02:55:17;16.47;;;10.30;;
35961;SDS011;22044;48.298;10.008;2023-07-24T02:58:02;12.90;;;9.10;;
35961;SDS011;22044;48.298;10.008;2023-07-24T03:00:48;13.93;;;9.77;;
35961;SDS011;22044;48.298;10.008;2023-07-24T03:03:34;15.60;;;10.07;;
35961;SDS011;22044;48.298;10.008;2023-07-24T03:06:21;12.47;;;9.97;;
35961;SDS011;22044;48.298;10.008;2023-07-24T03:09:06;15.13;;;9.90;;
35961;SDS011;22044;48.298;10.008;2023-07-24T03:11:52;17.83;;;10.57;;
35961;SDS011;22044;48.298;10.008;2023-07-24T03:14:37;17.00;;;10.77;;
35961;SDS011;22044;48.298;10.008;2023-07-24T03:17:23;16.43;;;10.43;;
35961;SDS011;22044;48.298;10.008;2023-07-24T03:20:09;14.43;;;10.37;;
35961;SDS011;22044;48.298;10.008;2023-07-24T03:23:00;15.97;;;11.13;;
35961;SDS011;22044;48.298;10.008;2023-07-24T03:25:45;15.00;;;10.70;;
35961;SDS011;22044;48.298;10.008;2023-07-24T03:28:31;14.43;;;10.87;;
35961;SDS011;22044;48.298;10.008;2023-07-24T03:31:17;13.40;;;10.23;;
35961;SDS011;22044;48.298;10.008;2023-07-24T03:34:02;13.93;;;11.13;;
35961;SDS011;22044;48.298;10.008;2023-07-24T03:36:48;17.87;;;11.50;;
35961;SDS011;22044;48.298;10.008;2023-07-24T03:39:35;22.37;;;11.37;;
35961;SDS011;22044;48.298;10.008;2023-07-24T03:42:24;20.20;;;11.73;;
35961;SDS011;22044;48.298;10.008;2023-07-24T03:45:11;14.60;;;10.77;;
35961;SDS011;22044;48.298;10.008;2023-07-24T03:47:56;18.20;;;11.97;;
35961;SDS011;22044;48.298;10.008;2023-07-24T03:50:42;18.47;;;12.40;;
35961;SDS011;22044;48.298;10.008;2023-07-24T03:53:27;18.93;;;10.80;;
35961;SDS011;22044;48.298;10.008;2023-07-24T03:56:14;18.30;;;11.03;;
35961;SDS011;22044;48.298;10.008;2023-07-24T03:58:59;17.17;;;11.20;;
35961;SDS011;22044;48.298;10.008;2023-07-24T04:01:45;20.43;;;12.10;;
35961;SDS011;22044;48.298;10.008;2023-07-24T04:04:31;14.03;;;10.67;;
35961;SDS011;22044;48.298;10.008;2023-07-24T04:07:17;14.37;;;10.00;;
35961;SDS011;22044;48.298;10.008;2023-07-24T04:10:04;17.73;;;10.67;;
35961;SDS011;22044;48.298;10.008;2023-07-24T04:12:51;15.23;;;10.97;;
35961;SDS011;22044;48.298;10.008;2023-07-24T04:15:37;18.60;;;11.90;;
35961;SDS011;22044;48.298;10.008;2023-07-24T04:18:23;13.23;;;10.20;;
35961;SDS011;22044;48.298;10.008;2023-07-24T04:21:09;19.60;;;11.13;;
35961;SDS011;22044;48.298;10.008;2023-07-24T04:23:54;13.63;;;10.90;;
35961;SDS011;22044;48.298;10.008;2023-07-24T04:26:40;12.60;;;10.17;;
35961;SDS011;22044;48.298;10.008;2023-07-24T04:29:27;13.87;;;10.63;;
35961;SDS011;22044;48.298;10.008;2023-07-24T04:32:13;16.37;;;11.57;;
35961;SDS011;22044;48.298;10.008;2023-07-24T04:34:58;16.03;;;10.70;;
35961;SDS011;22044;48.298;10.008;2023-07-24T04:37:44;13.83;;;11.03;;
35961;SDS011;22044;48.298;10.008;2023-07-24T04:40:29;15.13;;;9.97;;
35961;SDS011;22044;48.298;10.008;2023-07-24T04:43:15;14.60;;;9.90;;
35961;SDS011;22044;48.298;10.008;2023-07-24T04:46:02;14.03;;;11.37;;
35961;SDS011;22044;48.298;10.008;2023-07-24T04:48:47;13.67;;;11.23;;
35961;SDS011;22044;48.298;10.008;2023-07-24T04:51:33;12.47;;;10.43;;
35961;SDS011;22044;48.298;10.008;2023-07-24T04:54:19;13.33;;;10.67;;
35961;SDS011;22044;48.298;10.008;2023-07-24T04:57:04;17.47;;;10.77;;
35961;SDS011;22044;48.298;10.008;2023-07-24T04:59:50;15.07;;;10.87;;
35961;SDS011;22044;48.298;10.008;2023-07-24T05:02:37;13.67;;;11.13;;
35961;SDS011;22044;48.298;10.008;2023-07-24T05:05:23;16.67;;;10.60;;
35961;SDS011;22044;48.298;10.008;2023-07-24T05:08:08;13.73;;;10.60;;
35961;SDS011;22044;48.298;10.008;2023-07-24T05:10:54;14.63;;;11.80;;
35961;SDS011;22044;48.298;10.008;2023-07-24T05:13:40;16.33;;;11.37;;
35961;SDS011;22044;48.298;10.008;2023-07-24T05:16:25;13.83;;;10.77;;
35961;SDS011;22044;48.298;10.008;2023-07-24T05:19:12;16.40;;;11.03;;
35961;SDS011;22044;48.298;10.008;2023-07-24T05:21:58;13.40;;;10.57;;
35961;SDS011;22044;48.298;10.008;2023-07-24T05:24:44;13.70;;;10.83;;
35961;SDS011;22044;48.298;10.008;2023-07-24T05:27:29;13.90;;;11.10;;
35961;SDS011;22044;48.298;10.008;2023-07-24T05:30:15;13.27;;;10.13;;
35961;SDS011;22044;48.298;10.008;2023-07-24T05:33:00;12.60;;;10.60;;
35961;SDS011;22044;48.298;10.008;2023-07-24T05:35:47;13.40;;;10.87;;
35961;SDS011;22044;48.298;10.008;2023-07-24T05:38:33;12.73;;;10.37;;
35961;SDS011;22044;48.298;10.008;2023-07-24T05:41:19;15.63;;;11.23;;
35961;SDS011;22044;48.298;10.008;2023-07-24T05:44:04;14.33;;;10.73;;
35961;SDS011;22044;48.298;10.008;2023-07-24T05:46:51;13.90;;;10.47;;
35961;SDS011;22044;48.298;10.008;2023-07-24T05:49:37;13.57;;;10.77;;
35961;SDS011;22044;48.298;10.008;2023-07-24T05:52:24;15.60;;;10.77;;
35961;SDS011;22044;48.298;10.008;2023-07-24T05:55:09;14.00;;;10.87;;
35961;SDS011;22044;48.298;10.008;2023-07-24T05:57:55;14.60;;;10.87;;
35961;SDS011;22044;48.298;10.008;2023-07-24T06:00:41;13.53;;;11.20;;
35961;SDS011;22044;48.298;10.008;2023-07-24T06:03:26;15.37;;;11.90;;
35961;SDS011;22044;48.298;10.008;2023-07-24T06:06:12;17.40;;;11.37;;
35961;SDS011;22044;48.298;10.008;2023-07-24T06:08:59;15.23;;;10.80;;
35961;SDS011;22044;48.298;10.008;2023-07-24T06:11:44;15.50;;;11.43;;
35961;SDS011;22044;48.298;10.008;2023-07-24T06:14:30;14.73;;;10.70;;
35961;SDS011;22044;48.298;10.008;2023-07-24T06:17:16;16.60;;;11.43;;
35961;SDS011;22044;48.298;10.008;2023-07-24T06:20:01;16.20;;;11.53;;
35961;SDS011;22044;48.298;10.008;2023-07-24T06:22:48;17.23;;;12.20;;
35961;SDS011;22044;48.298;10.008;2023-07-24T06:25:36;16.87;;;12.13;;
35961;SDS011;22044;48.298;10.008;2023-07-24T06:28:21;20.60;;;13.13;;
35961;SDS011;22044;48.298;10.008;2023-07-24T06:31:10;16.73;;;11.10;;
35961;SDS011;22044;48.298;10.008;2023-07-24T06:33:55;17.00;;;11.60;;
35961;SDS011;22044;48.298;10.008;2023-07-24T06:36:41;16.03;;;11.30;;
35961;SDS011;22044;48.298;10.008;2023-07-24T06:39:27;12.00;;;9.57;;
35961;SDS011;22044;48.298;10.008;2023-07-24T06:42:14;12.07;;;9.00;;
35961;SDS011;22044;48.298;10.008;2023-07-24T06:45:00;11.87;;;8.37;;
35961;SDS011;22044;48.298;10.008;2023-07-24T06:47:45;10.13;;;7.40;;
35961;SDS011;22044;48.298;10.008;2023-07-24T06:50:31;10.77;;;7.20;;
35961;SDS011;22044;48.298;10.008;2023-07-24T06:53:17;10.67;;;7.50;;
35961;SDS011;22044;48.298;10.008;2023-07-24T06:56:02;9.70;;;6.90;;
35961;SDS011;22044;48.298;10.008;2023-07-24T06:58:50;10.47;;;7.50;;
35961;SDS011;22044;48.298;10.008;2023-07-24T07:01:35;9.20;;;7.57;;
35961;SDS011;22044;48.298;10.008;2023-07-24T07:04:21;12.00;;;7.40;;
35961;SDS011;22044;48.298;10.008;2023-07-24T07:07:06;8.77;;;6.67;;
35961;SDS011;22044;48.298;10.008;2023-07-24T07:09:52;11.07;;;7.60;;
35961;SDS011;22044;48.298;10.008;2023-07-24T07:12:38;8.07;;;7.07;;
35961;SDS011;22044;48.298;10.008;2023-07-24T07:15:25;10.93;;;7.43;;
35961;SDS011;22044;48.298;10.008;2023-07-24T07:18:10;10.40;;;7.27;;
35961;SDS011;22044;48.298;10.008;2023-07-24T07:20:56;9.00;;;6.47;;
35961;SDS011;22044;48.298;10.008;2023-07-24T07:23:41;7.50;;;6.67;;
35961;SDS011;22044;48.298;10.008;2023-07-24T07:26:27;9.20;;;6.20;;
35961;SDS011;22044;48.298;10.008;2023-07-24T07:29:13;8.27;;;6.30;;
35961;SDS011;22044;48.298;10.008;2023-07-24T07:32:01;7.60;;;5.67;;
35961;SDS011;22044;48.298;10.008;2023-07-24T07:34:47;11.67;;;6.77;;
35961;SDS011;22044;48.298;10.008;2023-07-24T07:37:33;8.10;;;6.17;;
35961;SDS011;22044;48.298;10.008;2023-07-24T07:40:19;8.27;;;6.07;;
35961;SDS011;22044;48.298;10.008;2023-07-24T07:43:06;7.17;;;6.23;;
35961;SDS011;22044;48.298;10.008;2023-07-24T07:45:52;8.80;;;6.67;;
35961;SDS011;22044;48.298;10.008;2023-07-24T07:48:41;8.60;;;6.83;;
35961;SDS011;22044;48.298;10.008;2023-07-24T07:51:27;9.47;;;6.40;;
35961;SDS011;22044;48.298;10.008;2023-07-24T07:54:14;7.40;;;6.60;;
35961;SDS011;22044;48.298;10.008;2023-07-24T07:57:03;9.93;;;6.90;;
35961;SDS011;22044;48.298;10.008;2023-07-24T07:59:49;9.93;;;6.40;;
35961;SDS011;22044;48.298;10.008;2023-07-24T08:02:35;9.63;;;7.07;;
35961;SDS011;22044;48.298;10.008;2023-07-24T08:05:25;7.88;;;6.30;;
35961;SDS011;22044;48.298;10.008;2023-07-24T08:08:10;6.67;;;5.97;;
35961;SDS011;22044;48.298;10.008;2023-07-24T08:10:56;8.40;;;6.33;;
35961;SDS011;22044;48.298;10.008;2023-07-24T08:13:41;8.53;;;5.50;;
35961;SDS011;22044;48.298;10.008;2023-07-24T08:16:27;10.85;;;5.97;;
35961;SDS011;22044;48.298;10.008;2023-07-24T08:19:12;7.23;;;4.87;;
35961;SDS011;22044;48.298;10.008;2023-07-24T08:22:00;7.93;;;5.50;;
35961;SDS011;22044;48.298;10.008;2023-07-24T08:24:45;6.68;;;5.47;;
35961;SDS011;22044;48.298;10.008;2023-07-24T08:27:33;10.77;;;5.03;;
35961;SDS011;22044;48.298;10.008;2023-07-24T08:30:19;8.03;;;5.03;;
35961;SDS011;22044;48.298;10.008;2023-07-24T08:33:05;6.93;;;5.25;;
35961;SDS011;22044;48.298;10.008;2023-07-24T08:35:58;7.70;;;5.23;;
35961;SDS011;22044;48.298;10.008;2023-07-24T08:38:45;6.13;;;4.95;;
35961;SDS011;22044;48.298;10.008;2023-07-24T08:41:31;7.95;;;5.18;;
35961;SDS011;22044;48.298;10.008;2023-07-24T08:44:18;7.68;;;5.13;;
35961;SDS011;22044;48.298;10.008;2023-07-24T08:47:06;7.22;;;4.90;;
35961;SDS011;22044;48.298;10.008;2023-07-24T08:49:55;6.43;;;5.28;;
35961;SDS011;22044;48.298;10.008;2023-07-24T08:52:41;7.22;;;4.90;;
35961;SDS011;22044;48.298;10.008;2023-07-24T08:55:29;6.18;;;5.05;;
35961;SDS011;22044;48.298;10.008;2023-07-24T08:58:15;8.55;;;5.22;;
35961;SDS011;22044;48.298;10.008;2023-07-24T09:01:02;7.88;;;5.35;;
35961;SDS011;22044;48.298;10.008;2023-07-24T09:03:48;6.13;;;5.13;;
35961;SDS011;22044;48.298;10.008;2023-07-24T09:06:34;5.78;;;5.07;;
35961;SDS011;22044;48.298;10.008;2023-07-24T09:09:20;7.50;;;5.53;;
35961;SDS011;22044;48.298;10.008;2023-07-24T09:12:08;9.45;;;5.25;;
35961;SDS011;22044;48.298;10.008;2023-07-24T09:15:03;6.68;;;4.60;;
35961;SDS011;22044;48.298;10.008;2023-07-24T09:17:49;7.00;;;4.90;;
35961;SDS011;22044;48.298;10.008;2023-07-24T09:20:38;7.30;;;4.75;;
35961;SDS011;22044;48.298;10.008;2023-07-24T09:23:25;8.30;;;5.32;;
35961;SDS011;22044;48.298;10.008;2023-07-24T09:26:12;7.07;;;5.38;;
35961;SDS011;22044;48.298;10.008;2023-07-24T09:28:59;9.95;;;6.43;;
35961;SDS011;22044;48.298;10.008;2023-07-24T09:31:45;8.50;;;7.25;;
35961;SDS011;22044;48.298;10.008;2023-07-24T09:34:31;7.78;;;5.78;;
35961;SDS011;22044;48.298;10.008;2023-07-24T09:37:23;6.05;;;5.20;;
35961;SDS011;22044;48.298;10.008;2023-07-24T09:40:11;6.88;;;5.20;;
35961;SDS011;22044;48.298;10.008;2023-07-24T09:42:58;5.68;;;4.90;;
35961;SDS011;22044;48.298;10.008;2023-07-24T09:45:46;7.32;;;5.55;;
35961;SDS011;22044;48.298;10.008;2023-07-24T09:48:32;8.20;;;5.82;;
35961;SDS011;22044;48.298;10.008;2023-07-24T09:51:19;9.38;;;5.70;;
35961;SDS011;22044;48.298;10.008;2023-07-24T09:54:06;6.88;;;5.13;;
35961;SDS011;22044;48.298;10.008;2023-07-24T09:56:58;6.82;;;5.60;;
35961;SDS011;22044;48.298;10.008;2023-07-24T09:59:44;5.50;;;4.70;;
35961;SDS011;22044;48.298;10.008;2023-07-24T10:02:33;6.60;;;4.93;;
35961;SDS011;22044;48.298;10.008;2023-07-24T10:05:20;7.65;;;4.97;;
35961;SDS011;22044;48.298;10.008;2023-07-24T10:08:06;5.97;;;5.10;;
35961;SDS011;22044;48.298;10.008;2023-07-24T10:10:52;5.32;;;4.72;;
35961;SDS011;22044;48.298;10.008;2023-07-24T10:13:37;6.35;;;4.78;;
35961;SDS011;22044;48.298;10.008;2023-07-24T10:16:23;7.00;;;5.28;;
35961;SDS011;22044;48.298;10.008;2023-07-24T10:19:14;5.10;;;4.53;;
35961;SDS011;22044;48.298;10.008;2023-07-24T10:22:00;5.25;;;4.47;;
35961;SDS011;22044;48.298;10.008;2023-07-24T10:24:47;7.63;;;5.07;;
35961;SDS011;22044;48.298;10.008;2023-07-24T10:27:35;4.85;;;4.32;;
35961;SDS011;22044;48.298;10.008;2023-07-24T10:30:27;6.07;;;4.60;;
35961;SDS011;22044;48.298;10.008;2023-07-24T10:33:18;6.35;;;5.03;;
35961;SDS011;22044;48.298;10.008;2023-07-24T10:36:07;5.80;;;4.90;;
35961;SDS011;22044;48.298;10.008;2023-07-24T10:38:56;6.88;;;4.85;;
35961;SDS011;22044;48.298;10.008;2023-07-24T10:41:41;7.93;;;5.40;;
35961;SDS011;22044;48.298;10.008;2023-07-24T10:44:30;6.13;;;4.20;;
35961;SDS011;22044;48.298;10.008;2023-07-24T10:47:16;7.05;;;4.88;;
35961;SDS011;22044;48.298;10.008;2023-07-24T10:50:05;6.15;;;4.70;;
35961;SDS011;22044;48.298;10.008;2023-07-24T10:52:52;5.68;;;4.97;;
35961;SDS011;22044;48.298;10.008;2023-07-24T10:55:38;5.22;;;4.32;;
35961;SDS011;22044;48.298;10.008;2023-07-24T10:58:25;7.57;;;5.10;;
35961;SDS011;22044;48.298;10.008;2023-07-24T11:01:11;5.90;;;4.90;;
35961;SDS011;22044;48.298;10.008;2023-07-24T11:03:58;7.75;;;5.05;;
35961;SDS011;22044;48.298;10.008;2023-07-24T11:06:44;5.88;;;5.18;;
35961;SDS011;22044;48.298;10.008;2023-07-24T11:09:39;7.03;;;5.63;;
35961;SDS011;22044;48.298;10.008;2023-07-24T11:12:26;10.82;;;6.10;;
35961;SDS011;22044;48.298;10.008;2023-07-24T11:15:14;8.32;;;5.40;;
35961;SDS011;22044;48.298;10.008;2023-07-24T11:18:00;10.70;;;6.57;;
35961;SDS011;22044;48.298;10.008;2023-07-24T11:20:47;7.72;;;5.43;;
35961;SDS011;22044;48.298;10.008;2023-07-24T11:23:35;7.25;;;5.82;;
35961;SDS011;22044;48.298;10.008;2023-07-24T11:26:22;7.28;;;6.03;;
35961;SDS011;22044;48.298;10.008;2023-07-24T11:29:12;9.48;;;6.28;;
35961;SDS011;22044;48.298;10.008;2023-07-24T11:31:58;6.53;;;5.00;;
35961;SDS011;22044;48.298;10.008;2023-07-24T11:34:43;6.15;;;5.10;;
35961;SDS011;22044;48.298;10.008;2023-07-24T11:37:29;7.93;;;5.50;;
35961;SDS011;22044;48.298;10.008;2023-07-24T11:40:16;6.45;;;5.28;;
35961;SDS011;22044;48.298;10.008;2023-07-24T11:43:05;6.07;;;4.97;;
35961;SDS011;22044;48.298;10.008;2023-07-24T11:45:59;7.05;;;5.57;;
35961;SDS011;22044;48.298;10.008;2023-07-24T11:48:45;8.00;;;5.40;;
35961;SDS011;22044;48.298;10.008;2023-07-24T11:51:30;6.38;;;4.95;;
35961;SDS011;22044;48.298;10.008;2023-07-24T11:54:18;6.22;;;5.32;;
35961;SDS011;22044;48.298;10.008;2023-07-24T11:57:04;8.90;;;5.55;;
35961;SDS011;22044;48.298;10.008;2023-07-24T12:00:01;6.45;;;5.20;;
35961;SDS011;22044;48.298;10.008;2023-07-24T12:02:52;8.35;;;5.50;;
35961;SDS011;22044;48.298;10.008;2023-07-24T12:05:38;7.85;;;6.07;;
35961;SDS011;22044;48.298;10.008;2023-07-24T12:08:29;7.53;;;5.50;;
35961;SDS011;22044;48.298;10.008;2023-07-24T12:11:17;9.80;;;5.80;;
35961;SDS011;22044;48.298;10.008;2023-07-24T12:14:03;10.80;;;7.33;;
35961;SDS011;22044;48.298;10.008;2023-07-24T12:16:50;8.40;;;6.43;;
35961;SDS011;22044;48.298;10.008;2023-07-24T12:19:45;8.77;;;7.33;;
35961;SDS011;22044;48.298;10.008;2023-07-24T12:22:31;7.97;;;6.40;;
35961;SDS011;22044;48.298;10.008;2023-07-24T12:25:17;7.77;;;6.43;;
35961;SDS011;22044;48.298;10.008;2023-07-24T12:28:03;8.50;;;6.63;;
35961;SDS011;22044;48.298;10.008;2023-07-24T12:30:49;8.23;;;6.40;;
35961;SDS011;22044;48.298;10.008;2023-07-24T12:33:36;9.43;;;7.27;;
35961;SDS011;22044;48.298;10.008;2023-07-24T12:36:21;8.67;;;6.67;;
35961;SDS011;22044;48.298;10.008;2023-07-24T12:39:07;9.30;;;7.13;;
35961;SDS011;22044;48.298;10.008;2023-07-24T12:41:52;11.87;;;6.87;;
35961;SDS011;22044;48.298;10.008;2023-07-24T12:44:38;8.77;;;6.93;;
35961;SDS011;22044;48.298;10.008;2023-07-24T12:47:24;8.00;;;6.77;;
35961;SDS011;22044;48.298;10.008;2023-07-24T12:50:11;9.57;;;6.97;;
35961;SDS011;22044;48.298;10.008;2023-07-24T12:52:56;10.33;;;6.83;;
35961;SDS011;22044;48.298;10.008;2023-07-24T12:55:42;7.50;;;5.80;;
35961;SDS011;22044;48.298;10.008;2023-07-24T12:58:28;6.97;;;5.40;;
35961;SDS011;22044;48.298;10.008;2023-07-24T13:01:13;8.37;;;5.93;;
35961;SDS011;22044;48.298;10.008;2023-07-24T13:03:59;7.03;;;5.30;;
35961;SDS011;22044;48.298;10.008;2023-07-24T13:06:46;6.53;;;4.70;;
35961;SDS011;22044;48.298;10.008;2023-07-24T13:09:31;6.63;;;4.40;;
35961;SDS011;22044;48.298;10.008;2023-07-24T13:12:17;8.10;;;4.30;;
35961;SDS011;22044;48.298;10.008;2023-07-24T13:15:03;5.23;;;3.83;;
35961;SDS011;22044;48.298;10.008;2023-07-24T13:17:50;5.17;;;4.23;;
35961;SDS011;22044;48.298;10.008;2023-07-24T13:20:35;5.20;;;4.30;;
35961;SDS011;22044;48.298;10.008;2023-07-24T13:23:22;4.87;;;3.97;;
35961;SDS011;22044;48.298;10.008;2023-07-24T13:26:08;5.30;;;3.60;;
35961;SDS011;22044;48.298;10.008;2023-07-24T13:28:54;5.30;;;4.60;;
35961;SDS011;22044;48.298;10.008;2023-07-24T13:31:40;4.67;;;3.93;;
35961;SDS011;22044;48.298;10.008;2023-07-24T13:34:25;5.77;;;4.10;;
35961;SDS011;22044;48.298;10.008;2023-07-24T13:37:11;6.03;;;3.77;;
35961;SDS011;22044;48.298;10.008;2023-07-24T13:39:58;5.77;;;3.90;;
35961;SDS011;22044;48.298;10.008;2023-07-24T13:42:46;5.27;;;3.60;;
35961;SDS011;22044;48.298;10.008;2023-07-24T13:45:31;5.07;;;3.27;;
35961;SDS011;22044;48.298;10.008;2023-07-24T13:48:17;4.07;;;2.37;;
35961;SDS011;22044;48.298;10.008;2023-07-24T13:51:03;4.72;;;3.25;;
35961;SDS011;22044;48.298;10.008;2023-07-24T13:53:48;3.10;;;2.80;;
35961;SDS011;22044;48.298;10.008;2023-07-24T13:56:37;3.33;;;2.70;;
35961;SDS011;22044;48.298;10.008;2023-07-24T13:59:22;4.32;;;3.28;;
35961;SDS011;22044;48.298;10.008;2023-07-24T14:02:08;3.33;;;3.03;;
35961;SDS011;22044;48.298;10.008;2023-07-24T14:04:53;2.53;;;2.33;;
35961;SDS011;22044;48.298;10.008;2023-07-24T14:07:39;3.05;;;2.67;;
35961;SDS011;22044;48.298;10.008;2023-07-24T14:10:24;3.83;;;2.28;;
35961;SDS011;22044;48.298;10.008;2023-07-24T14:13:11;2.95;;;2.33;;
35961;SDS011;22044;48.298;10.008;2023-07-24T14:15:57;2.95;;;2.65;;
35961;SDS011;22044;48.298;10.008;2023-07-24T14:18:43;3.53;;;2.65;;
35961;SDS011;22044;48.298;10.008;2023-07-24T14:21:28;4.15;;;2.58;;
35961;SDS011;22044;48.298;10.008;2023-07-24T14:24:14;2.90;;;2.50;;
35961;SDS011;22044;48.298;10.008;2023-07-24T14:27:00;4.57;;;3.10;;
35961;SDS011;22044;48.298;10.008;2023-07-24T14:29:47;4.65;;;2.70;;
35961;SDS011;22044;48.298;10.008;2023-07-24T14:32:32;4.00;;;2.90;;
35961;SDS011;22044;48.298;10.008;2023-07-24T14:35:18;7.85;;;2.70;;
35961;SDS011;22044;48.298;10.008;2023-07-24T14:38:04;4.88;;;2.90;;
35961;SDS011;22044;48.298;10.008;2023-07-24T14:40:50;4.15;;;2.85;;
35961;SDS011;22044;48.298;10.008;2023-07-24T14:43:35;3.78;;;2.55;;
35961;SDS011;22044;48.298;10.008;2023-07-24T14:46:22;4.35;;;2.88;;
35961;SDS011;22044;48.298;10.008;2023-07-24T14:49:08;4.03;;;3.03;;
35961;SDS011;22044;48.298;10.008;2023-07-24T14:51:53;4.15;;;2.83;;
35961;SDS011;22044;48.298;10.008;2023-07-24T14:54:39;3.85;;;2.88;;
35961;SDS011;22044;48.298;10.008;2023-07-24T14:57:24;3.45;;;3.03;;
35961;SDS011;22044;48.298;10.008;2023-07-24T15:00:10;4.28;;;2.78;;
35961;SDS011;22044;48.298;10.008;2023-07-24T15:02:57;4.93;;;2.65;;
35961;SDS011;22044;48.298;10.008;2023-07-24T15:05:43;3.30;;;2.75;;
35961;SDS011;22044;48.298;10.008;2023-07-24T15:08:29;4.72;;;3.38;;
35961;SDS011;22044;48.298;10.008;2023-07-24T15:11:14;3.13;;;2.80;;
35961;SDS011;22044;48.298;10.008;2023-07-24T15:14:00;3.28;;;2.75;;
35961;SDS011;22044;48.298;10.008;2023-07-24T15:16:46;5.85;;;2.58;;
35961;SDS011;22044;48.298;10.008;2023-07-24T15:19:33;6.32;;;3.17;;
35961;SDS011;22044;48.298;10.008;2023-07-24T15:22:19;4.50;;;2.97;;
35961;SDS011;22044;48.298;10.008;2023-07-24T15:25:04;7.13;;;3.27;;
35961;SDS011;22044;48.298;10.008;2023-07-24T15:27:53;4.75;;;2.92;;
35961;SDS011;22044;48.298;10.008;2023-07-24T15:30:38;4.25;;;2.97;;
35961;SDS011;22044;48.298;10.008;2023-07-24T15:33:24;3.60;;;2.83;;
35961;SDS011;22044;48.298;10.008;2023-07-24T15:36:11;3.72;;;3.10;;
35961;SDS011;22044;48.298;10.008;2023-07-24T15:38:56;3.53;;;2.95;;
35961;SDS011;22044;48.298;10.008;2023-07-24T15:41:42;5.68;;;3.00;;
35961;SDS011;22044;48.298;10.008;2023-07-24T15:44:28;4.10;;;2.88;;
35961;SDS011;22044;48.298;10.008;2023-07-24T15:47:13;3.83;;;2.93;;
35961;SDS011;22044;48.298;10.008;2023-07-24T15:49:59;3.83;;;3.20;;
35961;SDS011;22044;48.298;10.008;2023-07-24T15:52:47;3.37;;;2.70;;
35961;SDS011;22044;48.298;10.008;2023-07-24T15:55:32;5.10;;;3.23;;
35961;SDS011;22044;48.298;10.008;2023-07-24T15:58:18;4.10;;;3.00;;
35961;SDS011;22044;48.298;10.008;2023-07-24T16:01:04;4.03;;;3.27;;
35961;SDS011;22044;48.298;10.008;2023-07-24T16:03:51;5.03;;;3.40;;
35961;SDS011;22044;48.298;10.008;2023-07-24T16:06:36;7.67;;;3.60;;
35961;SDS011;22044;48.298;10.008;2023-07-24T16:09:23;3.83;;;3.37;;
35961;SDS011;22044;48.298;10.008;2023-07-24T16:12:09;4.97;;;3.67;;
35961;SDS011;22044;48.298;10.008;2023-07-24T16:14:54;5.23;;;3.27;;
35961;SDS011;22044;48.298;10.008;2023-07-24T16:17:40;4.07;;;3.40;;
35961;SDS011;22044;48.298;10.008;2023-07-24T16:20:25;3.60;;;2.90;;